WSAP METAR and TAF | Updated Today

WSAP METAR

Paya Lebar Air Base

Observation time: 45 min. ago

WSAP 292100Z 15001KT 9000 FEW018 BKN300 26/24 Q1008

Need help? Read our tutorial on how to read METARs or read the parsed version below.

Paya Lebar Air Base (WSAP) METAR

  • Weather conditions on Thu, 29 Sep 2022 21:00:00 +0000 (45 min. ago):
  • Present conditions: Dry
  • Clouds: A few at 549 meters; broken sky at 9144 meters
  • Visibility: 9000 meters
  • Wind: 150 degrees at 1 knots
  • Temperature: 26 celsius
  • Dew point: 24 celsius
  • Pressure: 1008 millibars
  • Remarks: None


Useful to know...

WSAP TAF

Paya Lebar Air Base

TAF WSAP 291700Z 2918/0100 18008KT 9999 FEW015 BKN020 TEMPO 3000/3004 3000 TSRA FEW012CB BKN015
Observation time: 4:45 hr. ago
Need help? Read our tutorial on how to read TAFs or read the parsed version below.

Parsed version of TAF for Paya Lebar Air Base (WSAP)

  • From 29 September at 18:00 UTC, to day 01 of the month at 00:00 UTC
  • Clouds: A few at 457 meters; broken sky at 610 meters
  • Visibility: Greater than 10 km
  • Wind: 180 degrees at 8
  • Expected to arise temporarily, from 30 September at 00:00 UTC, to day 30 of the month at 04:00 UTC
  • Clouds: A few at 366 meters, cumulonimbus; broken sky at 457 meters
  • Visibility: 3000 meters
  • Other: Thunderstorms rain